createdAt,value
2018-12-08T00:01:28.884Z,64.00
2018-12-08T00:03:56.955Z,63.60
2018-12-08T00:06:25.015Z,63.60
2018-12-08T00:08:53.136Z,64.30
2018-12-08T00:11:21.238Z,64.10
2018-12-08T00:13:49.629Z,64.90
2018-12-08T00:16:17.855Z,65.30
2018-12-08T00:18:45.969Z,64.50
2018-12-08T00:21:14.118Z,65.20
2018-12-08T00:23:42.315Z,65.20
2018-12-08T00:26:11.217Z,65.10
2018-12-08T00:28:39.431Z,65.60
2018-12-08T00:31:24.698Z,66.10
2018-12-08T00:33:53.058Z,65.20
2018-12-08T00:36:21.134Z,65.80
2018-12-08T00:38:49.207Z,64.50
2018-12-08T00:41:17.949Z,65.60
2018-12-08T00:43:46.045Z,65.70
2018-12-08T00:46:14.291Z,65.20
2018-12-08T00:48:42.574Z,65.10
2018-12-08T00:51:10.734Z,65.30
2018-12-08T00:53:38.879Z,65.40
2018-12-08T00:56:07.012Z,65.00
2018-12-08T00:58:35.113Z,65.20
2018-12-08T01:01:03.212Z,64.90
2018-12-08T01:03:31.494Z,64.40
2018-12-08T01:05:59.609Z,64.30
2018-12-08T01:08:27.748Z,64.40
2018-12-08T01:10:55.838Z,63.50
2018-12-08T01:13:24.035Z,63.60
2018-12-08T01:15:52.241Z,63.60
2018-12-08T01:18:20.440Z,63.60
2018-12-08T01:20:48.588Z,63.60
2018-12-08T01:23:17.381Z,62.60
2018-12-08T01:25:45.515Z,62.50
2018-12-08T01:28:13.643Z,62.90
2018-12-08T01:30:41.736Z,62.80
2018-12-08T01:33:09.892Z,63.10
2018-12-08T01:35:38.046Z,62.00
2018-12-08T01:38:06.245Z,62.80
2018-12-08T01:40:34.367Z,62.20
2018-12-08T01:43:03.148Z,62.40
2018-12-08T01:45:32.627Z,63.00
2018-12-08T01:48:00.797Z,62.90
2018-12-08T01:50:29.119Z,62.40
2018-12-08T01:53:02.483Z,61.90
2018-12-08T01:55:30.704Z,61.80
2018-12-08T01:57:58.820Z,62.00
2018-12-08T02:00:27.177Z,62.00
2018-12-08T02:02:55.606Z,63.20
2018-12-08T02:05:23.786Z,62.70
2018-12-08T02:07:52.507Z,62.60
2018-12-08T02:10:20.744Z,62.50
2018-12-08T02:12:48.865Z,63.10
2018-12-08T02:15:17.017Z,62.50
2018-12-08T02:17:45.264Z,62.60
2018-12-08T02:20:13.394Z,62.80
2018-12-08T02:22:42.452Z,62.00
2018-12-08T02:25:10.685Z,61.70
2018-12-08T02:27:38.843Z,61.80
2018-12-08T02:30:07.636Z,61.60
2018-12-08T02:32:35.925Z,60.80
2018-12-08T02:35:04.754Z,60.50
2018-12-08T02:37:32.960Z,60.30
2018-12-08T02:40:01.309Z,59.40
2018-12-08T02:42:29.737Z,60.70
2018-12-08T02:44:57.859Z,60.40
2018-12-08T02:47:25.997Z,61.70
2018-12-08T02:49:54.149Z,63.30
2018-12-08T02:52:22.305Z,63.60
2018-12-08T02:54:50.545Z,65.10
2018-12-08T02:57:18.642Z,65.30
2018-12-08T02:59:46.759Z,67.40
2018-12-08T03:02:14.967Z,67.30
2018-12-08T03:04:43.119Z,68.00
2018-12-08T03:07:11.316Z,66.10
2018-12-08T03:09:39.581Z,68.60
2018-12-08T03:12:07.723Z,70.60
2018-12-08T03:14:35.937Z,70.10
2018-12-08T03:17:04.319Z,72.60
2018-12-08T03:19:32.476Z,71.70
2018-12-08T03:22:00.565Z,72.90
2018-12-08T03:24:29.557Z,71.10
2018-12-08T03:26:57.666Z,71.20
2018-12-08T03:29:25.834Z,69.70
2018-12-08T03:31:54.076Z,69.70
2018-12-08T03:34:22.297Z,69.10
2018-12-08T03:36:50.485Z,70.50
2018-12-08T03:39:18.620Z,72.60
2018-12-08T03:41:46.744Z,73.50
2018-12-08T03:44:14.789Z,72.00
2018-12-08T03:46:42.888Z,72.00
2018-12-08T03:49:10.975Z,72.00
2018-12-08T03:51:39.102Z,72.00
2018-12-08T03:54:07.209Z,72.40
2018-12-08T03:56:35.414Z,73.60
2018-12-08T03:59:03.634Z,74.40
2018-12-08T04:01:31.745Z,74.80
2018-12-08T04:04:00.570Z,74.30
2018-12-08T04:06:28.772Z,75.00
2018-12-08T04:08:56.899Z,75.20
2018-12-08T04:11:25.080Z,74.00
2018-12-08T04:13:53.925Z,73.80
2018-12-08T04:16:22.076Z,73.50
2018-12-08T04:18:50.925Z,72.10
2018-12-08T04:21:19.045Z,72.80
2018-12-08T04:23:47.339Z,71.90
2018-12-08T04:26:15.560Z,72.00
2018-12-08T04:28:43.641Z,72.50
2018-12-08T04:31:11.695Z,72.80
2018-12-08T04:33:40.012Z,71.80
2018-12-08T04:36:08.207Z,73.70
2018-12-08T04:38:36.323Z,73.60
2018-12-08T04:41:04.447Z,74.30
2018-12-08T04:43:32.587Z,75.70
2018-12-08T04:46:00.786Z,76.20
2018-12-08T04:48:28.892Z,75.90
2018-12-08T04:50:57.073Z,76.30
2018-12-08T04:53:25.353Z,74.00
2018-12-08T04:55:53.465Z,73.30
2018-12-08T04:58:21.583Z,71.60
2018-12-08T05:00:49.766Z,72.90
2018-12-08T05:03:17.998Z,73.50
2018-12-08T05:05:46.144Z,72.00
2018-12-08T05:08:14.306Z,70.20
2018-12-08T05:10:42.433Z,70.90
2018-12-08T05:13:10.581Z,68.40
2018-12-08T05:15:38.688Z,67.80
2018-12-08T05:18:06.871Z,67.00
2018-12-08T05:20:35.029Z,66.70
2018-12-08T05:23:03.289Z,65.20
2018-12-08T05:25:31.405Z,65.30
2018-12-08T05:27:59.553Z,65.90
2018-12-08T05:30:27.752Z,65.80
2018-12-08T05:32:55.897Z,65.00
2018-12-08T05:35:23.958Z,64.70
2018-12-08T05:37:52.056Z,63.30
2018-12-08T05:40:20.742Z,64.60
2018-12-08T05:42:48.851Z,63.70
2018-12-08T05:45:16.925Z,63.50
2018-12-08T05:47:45.050Z,63.30
2018-12-08T05:50:13.760Z,63.40
2018-12-08T05:52:41.818Z,63.40
2018-12-08T05:55:09.882Z,62.20
2018-12-08T05:57:37.930Z,61.90
2018-12-08T06:00:07.443Z,62.20
2018-12-08T06:02:35.552Z,62.70
2018-12-08T06:05:04.263Z,62.00
2018-12-08T06:07:34.335Z,62.10
2018-12-08T06:10:02.479Z,62.60
2018-12-08T06:12:31.299Z,62.10
2018-12-08T06:15:01.915Z,62.20
2018-12-08T06:17:34.717Z,62.80
2018-12-08T06:20:03.387Z,63.20
2018-12-08T06:22:31.470Z,63.90
2018-12-08T06:24:59.567Z,63.90
2018-12-08T06:27:49.439Z,63.80
2018-12-08T06:30:17.593Z,65.60
2018-12-08T06:32:45.730Z,68.70
2018-12-08T06:35:13.956Z,68.70
2018-12-08T06:37:42.070Z,70.20
2018-12-08T06:40:11.001Z,70.70
2018-12-08T06:42:45.418Z,71.20
2018-12-08T06:45:13.544Z,71.20
2018-12-08T06:47:41.701Z,71.70
2018-12-08T06:50:09.856Z,71.10
2018-12-08T06:52:38.148Z,72.20
2018-12-08T06:55:06.462Z,70.80
2018-12-08T06:57:34.603Z,72.70
2018-12-08T07:00:03.907Z,71.90
2018-12-08T07:02:32.446Z,70.70
2018-12-08T07:05:00.490Z,70.40
2018-12-08T07:07:28.638Z,70.40
2018-12-08T07:09:56.764Z,69.20
2018-12-08T07:12:24.830Z,71.00
2018-12-08T07:14:52.977Z,70.70
2018-12-08T07:17:21.174Z,71.20
2018-12-08T07:19:49.248Z,71.60
2018-12-08T07:22:17.304Z,72.90
2018-12-08T07:24:45.443Z,72.50
2018-12-08T07:27:13.864Z,71.20
2018-12-08T07:29:41.918Z,71.30
2018-12-08T07:32:09.997Z,73.70
2018-12-08T07:34:38.062Z,73.40
2018-12-08T07:37:06.416Z,73.70
2018-12-08T07:39:34.494Z,73.50
2018-12-08T07:42:03.048Z,73.80
2018-12-08T07:44:31.218Z,75.30
2018-12-08T07:46:59.305Z,75.80
2018-12-08T07:49:27.865Z,75.40
2018-12-08T07:51:55.999Z,76.40
2018-12-08T07:54:24.211Z,77.20
2018-12-08T07:56:52.927Z,76.90
2018-12-08T07:59:21.152Z,78.60
2018-12-08T08:01:49.228Z,78.00
2018-12-08T08:04:17.360Z,78.80
2018-12-08T08:06:46.810Z,78.50
2018-12-08T08:09:15.555Z,78.80
2018-12-08T08:11:43.836Z,77.20
2018-12-08T08:14:12.266Z,77.80
2018-12-08T08:16:40.475Z,77.70
2018-12-08T08:19:09.172Z,78.40
2018-12-08T08:21:37.369Z,77.20
2018-12-08T08:24:05.492Z,77.00
2018-12-08T08:26:34.274Z,76.20
2018-12-08T08:29:02.416Z,76.20
2018-12-08T08:31:30.548Z,77.00
2018-12-08T08:33:58.900Z,78.80
2018-12-08T08:36:27.112Z,76.70
2018-12-08T08:38:55.211Z,79.20
2018-12-08T08:41:23.340Z,76.70
2018-12-08T08:43:51.477Z,78.40
2018-12-08T08:46:19.567Z,78.20
2018-12-08T08:48:47.820Z,79.10
2018-12-08T08:51:15.961Z,79.10
2018-12-08T08:53:44.050Z,79.10
2018-12-08T08:56:12.169Z,79.00
2018-12-08T08:58:40.325Z,80.80
2018-12-08T09:01:08.433Z,80.90
2018-12-08T09:03:36.494Z,81.60
2018-12-08T09:06:05.328Z,81.30
2018-12-08T09:08:33.399Z,80.80
2018-12-08T09:11:01.552Z,82.00
2018-12-08T09:13:29.609Z,81.60
2018-12-08T09:15:57.734Z,81.40
2018-12-08T09:18:25.886Z,82.40
2018-12-08T09:20:54.026Z,83.20
2018-12-08T09:23:23.664Z,83.00
2018-12-08T09:25:52.689Z,83.60
2018-12-08T09:28:20.851Z,82.20
2018-12-08T09:30:48.931Z,84.20
2018-12-08T09:33:17.036Z,83.10
2018-12-08T09:35:45.155Z,81.70
2018-12-08T09:38:15.042Z,81.40
2018-12-08T09:40:43.195Z,84.10
2018-12-08T09:43:12.412Z,83.30
2018-12-08T09:45:41.988Z,84.10
2018-12-08T09:48:11.084Z,84.90
2018-12-08T09:50:39.246Z,85.50
2018-12-08T09:53:14.407Z,84.20
2018-12-08T09:55:42.551Z,84.30
2018-12-08T09:58:10.705Z,84.30
2018-12-08T10:00:39.808Z,82.00
2018-12-08T10:03:08.643Z,84.30
2018-12-08T10:05:36.939Z,82.80
2018-12-08T10:08:05.056Z,82.70
2018-12-08T10:10:33.264Z,83.80
2018-12-08T10:13:01.411Z,83.90
2018-12-08T10:15:29.568Z,85.00
2018-12-08T10:17:57.740Z,83.40
2018-12-08T10:20:25.892Z,83.20
2018-12-08T10:22:54.825Z,83.90
2018-12-08T10:25:22.954Z,81.30
2018-12-08T10:27:51.207Z,83.00
2018-12-08T10:30:19.392Z,82.70
2018-12-08T10:32:47.851Z,81.50
2018-12-08T10:35:16.117Z,82.60
2018-12-08T10:37:44.438Z,80.90
2018-12-08T10:40:12.648Z,81.90
2018-12-08T10:42:40.793Z,81.10
2018-12-08T10:45:09.500Z,81.10
2018-12-08T10:47:37.859Z,82.10
2018-12-08T10:50:10.105Z,79.20
2018-12-08T10:52:38.338Z,80.00
2018-12-08T10:55:07.421Z,80.50
2018-12-08T10:57:35.562Z,80.60
2018-12-08T11:00:06.779Z,79.30
2018-12-08T11:02:39.927Z,83.10
2018-12-08T11:05:08.466Z,81.30
2018-12-08T11:07:36.639Z,79.20
2018-12-08T11:10:05.868Z,79.20
2018-12-08T11:12:34.474Z,80.60
2018-12-08T11:15:02.520Z,81.30
2018-12-08T11:17:30.554Z,79.00
2018-12-08T11:19:58.724Z,80.90
2018-12-08T11:22:26.904Z,80.90
2018-12-08T11:24:55.003Z,80.10
2018-12-08T11:27:23.727Z,79.50
2018-12-08T11:29:51.869Z,79.90
2018-12-08T11:32:19.970Z,81.10
2018-12-08T11:34:48.121Z,80.90
2018-12-08T11:37:16.412Z,81.70
2018-12-08T11:39:44.590Z,81.30
2018-12-08T11:42:12.689Z,80.80
2018-12-08T11:44:41.498Z,81.50
2018-12-08T11:47:09.598Z,81.50
2018-12-08T11:49:37.838Z,81.20
2018-12-08T11:52:05.973Z,83.00
2018-12-08T11:54:34.130Z,81.20
2018-12-08T11:57:02.353Z,83.50
2018-12-08T11:59:30.610Z,80.80
2018-12-08T12:01:58.699Z,82.40
2018-12-08T12:04:27.016Z,81.60
2018-12-08T12:06:55.175Z,80.80
2018-12-08T12:09:23.712Z,81.60
2018-12-08T12:11:52.530Z,82.00
2018-12-08T12:14:57.170Z,79.60
2018-12-08T12:17:25.488Z,81.70
2018-12-08T12:19:53.634Z,80.70
2018-12-08T12:22:22.289Z,79.30
2018-12-08T12:24:50.369Z,79.60
2018-12-08T12:27:18.621Z,81.20
2018-12-08T12:29:46.830Z,80.90
2018-12-08T12:32:15.223Z,80.70
2018-12-08T12:34:43.376Z,79.90
2018-12-08T12:37:11.527Z,79.70
2018-12-08T12:39:40.296Z,79.70
2018-12-08T12:42:08.321Z,79.80
2018-12-08T12:44:36.388Z,79.80
2018-12-08T12:47:05.486Z,79.80
2018-12-08T12:49:33.589Z,79.80
2018-12-08T12:52:01.887Z,79.80
2018-12-08T12:54:29.961Z,79.80
2018-12-08T12:56:58.113Z,79.80
2018-12-08T12:59:26.215Z,79.80
2018-12-08T13:01:54.785Z,79.80
2018-12-08T13:04:22.960Z,79.80
2018-12-08T13:06:50.995Z,79.80
2018-12-08T13:09:20.148Z,81.00
2018-12-08T13:11:48.661Z,81.00
2018-12-08T13:14:16.822Z,79.90
2018-12-08T13:16:45.047Z,79.90
2018-12-08T13:19:13.217Z,78.10
2018-12-08T13:21:42.571Z,78.90
2018-12-08T13:24:10.815Z,77.50
2018-12-08T13:26:38.965Z,78.10
2018-12-08T13:29:07.229Z,76.90
2018-12-08T13:31:35.350Z,77.90
2018-12-08T13:34:32.823Z,78.40
2018-12-08T13:37:01.073Z,76.40
2018-12-08T13:39:29.204Z,75.20
2018-12-08T13:41:57.253Z,77.30
2018-12-08T13:44:35.714Z,75.50
2018-12-08T13:47:04.084Z,76.10
2018-12-08T13:49:32.949Z,76.70
2018-12-08T13:52:01.045Z,76.00
2018-12-08T13:55:00.087Z,75.90
2018-12-08T13:57:28.203Z,77.10
2018-12-08T13:59:57.055Z,77.30
2018-12-08T14:02:34.612Z,77.10
2018-12-08T14:05:02.893Z,76.30
2018-12-08T14:07:31.098Z,76.30
2018-12-08T14:09:59.174Z,76.30
2018-12-08T14:12:27.302Z,75.30
2018-12-08T14:14:55.489Z,74.90
2018-12-08T14:17:23.585Z,74.00
2018-12-08T14:19:51.729Z,73.70
2018-12-08T14:22:24.945Z,72.80
2018-12-08T14:24:53.117Z,73.30
2018-12-08T14:27:21.291Z,74.00
2018-12-08T14:29:49.461Z,72.70
2018-12-08T14:32:18.165Z,73.20
2018-12-08T14:34:46.516Z,72.80
2018-12-08T14:37:14.695Z,71.70
2018-12-08T14:39:45.959Z,71.30
2018-12-08T14:42:14.202Z,71.00
2018-12-08T14:44:42.390Z,70.40
2018-12-08T14:47:10.706Z,70.70
2018-12-08T14:49:42.176Z,71.30
2018-12-08T14:52:10.515Z,71.30
2018-12-08T14:54:38.696Z,70.50
2018-12-08T14:57:07.030Z,69.60
2018-12-08T14:59:36.421Z,70.20
2018-12-08T15:02:05.225Z,69.80
2018-12-08T15:04:33.882Z,70.40
2018-12-08T15:07:03.043Z,69.80
2018-12-08T15:09:31.310Z,69.80
2018-12-08T15:11:59.481Z,69.80
2018-12-08T15:14:27.783Z,69.80
2018-12-08T15:16:59.965Z,69.80
2018-12-08T15:19:34.371Z,69.90
2018-12-08T15:22:08.268Z,69.50
2018-12-08T15:25:02.319Z,69.90
2018-12-08T15:27:36.662Z,69.80
2018-12-08T15:30:09.949Z,69.20
2018-12-08T15:32:42.275Z,69.80
2018-12-08T15:35:14.208Z,69.10
2018-12-08T15:37:46.321Z,69.90
2018-12-08T15:40:19.149Z,69.30
2018-12-08T15:42:52.769Z,68.80
2018-12-08T15:45:24.145Z,69.90
2018-12-08T15:47:56.946Z,69.60
2018-12-08T15:50:29.086Z,69.90
2018-12-08T15:52:57.227Z,69.80
2018-12-08T15:55:31.069Z,71.00
2018-12-08T15:58:05.239Z,72.20
2018-12-08T16:00:33.750Z,73.10
2018-12-08T16:03:10.473Z,73.90
2018-12-08T16:05:41.672Z,72.80
2018-12-08T16:08:09.863Z,73.30
2018-12-08T16:10:38.258Z,72.80
2018-12-08T16:13:06.490Z,72.40
2018-12-08T16:15:36.277Z,72.60
2018-12-08T16:18:06.464Z,71.50
2018-12-08T16:20:36.727Z,70.90
2018-12-08T16:23:09.453Z,71.90
2018-12-08T16:25:37.643Z,69.90
2018-12-08T16:28:12.201Z,69.70
2018-12-08T16:30:40.374Z,70.70
2018-12-08T16:33:08.826Z,69.70
2018-12-08T16:35:39.806Z,69.80
2018-12-08T16:38:07.929Z,69.80
2018-12-08T16:40:36.628Z,69.80
2018-12-08T16:43:10.526Z,69.90
2018-12-08T16:45:42.627Z,70.00
2018-12-08T16:48:12.499Z,72.30
2018-12-08T16:53:46.668Z,71.60
2018-12-08T16:56:16.226Z,71.40
2018-12-08T16:58:50.913Z,71.30
2018-12-08T17:01:37.776Z,71.50
2018-12-08T17:04:09.286Z,71.00
2018-12-08T17:06:40.526Z,71.20
2018-12-08T17:09:15.824Z,70.50
2018-12-08T17:11:47.600Z,69.90
2018-12-08T17:14:19.503Z,70.00
2018-12-08T17:19:19.554Z,70.80
2018-12-08T17:21:51.127Z,71.80
2018-12-08T17:24:22.736Z,71.60
2018-12-08T17:29:57.100Z,69.90
2018-12-08T17:32:28.758Z,71.20
2018-12-08T17:34:58.815Z,70.60
2018-12-08T17:37:43.353Z,70.00
2018-12-08T17:40:13.787Z,70.00
2018-12-08T17:42:54.359Z,69.50
2018-12-08T17:45:22.556Z,69.50
2018-12-08T17:47:50.863Z,68.80
2018-12-08T17:50:19.072Z,68.10
2018-12-08T17:52:53.622Z,68.40
2018-12-08T18:01:30.099Z,67.60
2018-12-08T18:04:03.570Z,67.90
2018-12-08T18:06:32.542Z,68.50
2018-12-08T18:09:02.448Z,70.30
2018-12-08T18:11:30.722Z,70.20
2018-12-08T18:13:58.957Z,70.20
2018-12-08T18:16:27.217Z,70.10
2018-12-08T18:18:55.317Z,70.20
2018-12-08T18:21:23.529Z,70.10
2018-12-08T18:23:51.991Z,71.30
2018-12-08T18:26:20.127Z,70.10
2018-12-08T18:28:48.239Z,72.00
2018-12-08T18:31:28.692Z,72.70
2018-12-08T18:33:57.055Z,74.60
2018-12-08T18:36:29.744Z,74.50
2018-12-08T18:39:05.586Z,76.70
2018-12-08T18:41:49.177Z,77.70
2018-12-08T18:44:44.485Z,79.50
2018-12-08T18:47:12.583Z,79.90
2018-12-08T18:49:43.973Z,80.30
2018-12-08T18:52:18.373Z,80.20
2018-12-08T18:54:50.504Z,81.40
2018-12-08T18:57:24.935Z,82.90
2018-12-08T18:59:56.588Z,83.00
2018-12-08T19:02:28.465Z,83.10
2018-12-08T19:05:03.421Z,83.50
2018-12-08T19:07:31.821Z,84.80
2018-12-08T19:10:00.341Z,86.10
2018-12-08T19:12:28.717Z,85.20
2018-12-08T19:14:58.811Z,85.30
2018-12-08T19:17:27.611Z,84.90
2018-12-08T19:19:56.249Z,84.00
2018-12-08T19:22:24.444Z,84.40
2018-12-08T19:24:52.700Z,84.50
2018-12-08T19:27:21.588Z,84.00
2018-12-08T19:29:49.756Z,83.60
2018-12-08T19:32:21.916Z,83.80
2018-12-08T19:34:56.404Z,82.40
2018-12-08T19:40:28.162Z,84.20
2018-12-08T19:42:56.501Z,82.20
2018-12-08T19:45:25.449Z,82.30
2018-12-08T19:48:02.490Z,81.70
2018-12-08T19:50:30.931Z,80.30
2018-12-08T19:53:02.620Z,81.20
2018-12-08T19:55:37.752Z,81.90
2018-12-08T19:58:13.803Z,82.10
2018-12-08T20:00:47.510Z,80.30
2018-12-08T20:03:15.756Z,83.30
2018-12-08T20:05:47.307Z,83.00
2018-12-08T20:08:20.994Z,84.00
2018-12-08T20:10:55.170Z,84.50
2018-12-08T20:13:27.818Z,85.50
2018-12-08T20:16:02.142Z,85.40
2018-12-08T20:18:33.692Z,85.40
2018-12-08T20:21:05.540Z,86.50
2018-12-08T20:23:40.048Z,87.80
2018-12-08T20:26:14.187Z,87.80
2018-12-08T20:28:45.807Z,88.20
2018-12-08T20:31:17.876Z,88.10
2018-12-08T20:33:52.034Z,87.00
2018-12-08T20:36:25.837Z,88.20
2018-12-08T20:38:57.105Z,88.20
2018-12-08T20:41:30.727Z,89.60
2018-12-08T20:44:00.815Z,89.50
2018-12-08T20:46:32.049Z,90.00
2018-12-08T20:49:03.601Z,90.20
2018-12-08T20:51:45.866Z,90.00
2018-12-08T20:54:30.457Z,90.00
2018-12-08T20:56:58.557Z,90.10
2018-12-08T20:59:38.687Z,90.00
2018-12-08T21:02:19.184Z,90.00
2018-12-08T21:04:47.458Z,90.10
2018-12-08T21:07:15.683Z,90.10
2018-12-08T21:09:47.162Z,90.10
2018-12-08T21:12:20.338Z,90.20
2018-12-08T21:14:48.492Z,90.10
2018-12-08T21:17:22.930Z,89.90
2018-12-08T21:19:51.044Z,90.10
2018-12-08T21:22:19.152Z,89.60
2018-12-08T21:24:47.265Z,90.20
2018-12-08T21:27:16.889Z,90.40
2018-12-08T21:29:46.891Z,90.20
2018-12-08T21:32:15.163Z,90.50
2018-12-08T21:34:43.463Z,90.20
2018-12-08T21:37:11.613Z,90.30
2018-12-08T21:39:39.792Z,90.20
2018-12-08T21:42:07.920Z,90.20
2018-12-08T21:44:36.087Z,90.70
2018-12-08T21:47:04.418Z,90.60
2018-12-08T21:49:32.659Z,90.80
2018-12-08T21:52:00.822Z,91.20
2018-12-08T21:54:28.944Z,91.50
2018-12-08T21:56:57.032Z,91.60
2018-12-08T21:59:25.171Z,91.60
2018-12-08T22:01:53.465Z,91.70
2018-12-08T22:04:21.614Z,91.40
2018-12-08T22:06:49.840Z,91.50
2018-12-08T22:09:18.005Z,90.90
2018-12-08T22:11:46.143Z,90.80
2018-12-08T22:14:14.225Z,91.10
2018-12-08T22:16:42.472Z,91.30
2018-12-08T22:19:10.612Z,91.00
2018-12-08T22:21:38.746Z,91.80
2018-12-08T22:31:38.095Z,90.70
2018-12-08T22:34:06.233Z,91.20
2018-12-08T22:36:34.525Z,91.30
2018-12-08T22:39:04.074Z,91.00
2018-12-08T22:41:46.850Z,91.50
2018-12-08T22:44:21.184Z,91.80
2018-12-08T22:46:59.292Z,91.40
2018-12-08T22:49:30.902Z,91.80
2018-12-08T22:52:02.720Z,91.90
2018-12-08T22:54:36.305Z,91.60
2018-12-08T22:57:07.887Z,91.20
2018-12-08T22:59:39.999Z,91.90
2018-12-08T23:02:12.127Z,91.50
2018-12-08T23:04:47.313Z,91.60
2018-12-08T23:07:18.733Z,91.60
2018-12-08T23:09:46.805Z,90.40
2018-12-08T23:12:20.876Z,91.30
2018-12-08T23:14:50.353Z,90.80
2018-12-08T23:17:24.863Z,91.00
2018-12-08T23:19:58.789Z,90.80
2018-12-08T23:22:30.094Z,91.50
2018-12-08T23:25:06.750Z,91.50
2018-12-08T23:27:40.471Z,91.90
2018-12-08T23:32:36.920Z,91.20
2018-12-08T23:35:05.193Z,91.20
2018-12-08T23:37:33.299Z,91.10
2018-12-08T23:40:01.451Z,90.60
2018-12-08T23:42:30.211Z,91.10
2018-12-08T23:44:58.263Z,91.20
2018-12-08T23:47:27.369Z,90.50
2018-12-08T23:49:55.514Z,90.50
2018-12-08T23:52:23.575Z,90.50
2018-12-08T23:54:57.414Z,90.50
2018-12-08T23:57:25.544Z,90.50
2018-12-08T23:59:53.939Z,91.00
